Nearby METAR Reports

 

KIWA - Chandler/Mesa, Arizona, USA
Distance from station: SSW 7mi, 12km
Updated: Mon, 22-Jan-2018 9:48pm MST
Partly cloudy
Partly cloudy
 Wind from W
Wind: W 6 mph , 9 km/h
Temperature: 45°F , 7°C
Wind Chill: 42°F , 6°C
Dew Point: 21°F , -6°C
Humidity: 39%
Barometer: 30.16 inHg , 1021.3 hPa
Clouds: Partly cloudy
Visibility: 20 miles , 32 km
Cloud details: Partly cloudy 25000 ft
2018/01/23 04:48 KIWA 230448Z 28005KT 20SM SCT250 07/M06 A3016
KFFZ - Mesa/Falcon Fld, Arizona, USA
Distance from station: NW 8mi, 13km
Updated: Mon, 22-Jan-2018 7:55pm MST
NOT Current
Partly cloudy
Partly cloudy
 Wind from SE
Wind: SE 5 mph , 7 km/h
Temperature: 52°F , 11°C
Dew Point: 21°F , -6°C
Humidity: 30%
Barometer: 30.15 inHg , 1021 hPa
Clouds: Partly cloudy
Visibility: 50 miles , 80 km
Cloud details: Partly cloudy 20000 ft
2018/01/23 02:55 KFFZ 230255Z 14004KT 50SM SCT200 11/M06 A3015
 
KSDL - Scottsdale, Arizona, USA
Distance from station: NW 24mi, 38km
Updated: Mon, 22-Jan-2018 9:53pm MST
Clear
Clear
 Wind from calm
Wind: Calm
Temperature: 46°F , 8°C
Dew Point: 25°F , -4°C
Humidity: 43%
Barometer: 30.16 inHg , 1021.3 hPa
Clouds: Clear
Visibility: 10 miles , 16 km
2018/01/23 04:53 KSDL 230453Z AUTO 00000KT 10SM CLR 08/M04 A3016 RMK AO2 SLP209 T00831044
KPHX - Phoenix/Sky Hrbr, Arizona, USA
Distance from station: W 24mi, 39km
Updated: Mon, 22-Jan-2018 9:51pm MST
Clear
Clear
 Wind from WNW
Wind: WNW 5 mph , 7 km/h
Temperature: 54°F , 12°C
Dew Point: 19°F , -7°C
Humidity: 26%
Barometer: 30.14 inHg , 1020.7 hPa
Clouds: Clear
Visibility: 10 miles , 16 km
2018/01/23 04:51 KPHX 230451Z 30004KT 10SM CLR 12/M07 A3014 RMK AO2 SLP202 T01171067
 
KCGZ - Casa Granda, Arizona, USA
Distance from station: SSW 33mi, 52km
Updated: Sat, 16-Sep-2017 8:56pm MST
NOT Current
Clear
Clear
 Wind from W
Wind: W 8 mph , 13 km/h
Temperature: 84°F , 29°C
Dew Point: 46°F , 8°C
Humidity: 27%
Barometer: 29.83 inHg , 1010.2 hPa
Clouds: Clear
Visibility: 10 miles , 16 km
2017/09/17 03:56 KCGZ 170356Z AUTO 27007KT 10SM CLR 29/08 A2983 RMK AO2 SLP086 T02940083 PNO $
KDVT - Phoenix/Deer Vly, Arizona, USA
Distance from station: NW 33mi, 54km
Updated: Mon, 22-Jan-2018 9:53pm MST
Clear
Clear
 Wind from calm
Wind: Calm
Temperature: 41°F , 5°C
Dew Point: 23°F , -5°C
Humidity: 49%
Barometer: 30.15 inHg , 1021 hPa
Clouds: Clear
Visibility: 10 miles , 16 km
2018/01/23 04:53 KDVT 230453Z 00000KT 10SM CLR 05/M05 A3015 RMK AO2 SLP207 T00501050
 
KP08 - Coolidge Muni, Arizona, USA
Distance from station: SSE 34mi, 54km
Updated: Mon, 02-Oct-2017 10:05am MST
NOT Current

 
2017/10/02 17:05 KP08 021705Z AUTO RMK AO2 PNO PWINO TSNO
KGEU - Glendale, Arizona, USA
Distance from station: WNW 41mi, 67km
Updated: Mon, 22-Jan-2018 6:55pm MST
NOT Current
Few Clouds
Few Clouds
 Wind from calm
Wind: Calm
Temperature: 54°F , 12°C
Dew Point: 19°F , -7°C
Humidity: 26%
Barometer: 30.16 inHg , 1021.3 hPa
Clouds: Few Clouds
Visibility: 10 miles , 16 km
Cloud details: Few Clouds 18000 ft
2018/01/23 01:55 KGEU 230155Z 00000KT 10SM FEW180 12/M07 A3016
 
KGYR - Goodyear Municip, Arizona, USA
Distance from station: W 44mi, 71km
Updated: Mon, 22-Jan-2018 7:47pm MST
NOT Current
Few Clouds
Few Clouds
 Wind from calm
Wind: Calm
Temperature: 48°F , 9°C
Dew Point: 25°F , -4°C
Humidity: 40%
Barometer: 30.15 inHg , 1021 hPa
Clouds: Few Clouds
Visibility: 10 miles , 16 km
Cloud details: Few Clouds 18000 ft
Few Clouds 25000 ft
2018/01/23 02:47 KGYR 230247Z 00000KT 10SM FEW180 FEW250 09/M04 A3015
KLUF - Luke Afb/Glendal, Arizona, USA
Distance from station: W 45mi, 72km
Updated: Mon, 22-Jan-2018 9:58pm MST
Clear
Clear
 Wind from NNE
Wind: NNE 5 mph , 7 km/h
Temperature: 45°F , 7°C
Wind Chill: 42°F , 6°C
Dew Point: 23°F , -5°C
Humidity: 42%
Barometer: 30.14 inHg , 1020.7 hPa
Clouds: Clear
Visibility: 10 miles , 16 km
2018/01/23 04:58 KLUF 230458Z AUTO 03004KT 10SM CLR 07/M05 A3014 RMK AO2 SLP209 T00741047 VISNO RWY21 $
 
KPAN - Payson, Arizona, USA
Distance from station: NNE 61mi, 98km
Updated: Mon, 22-Jan-2018 10:35pm MST
Clear
Clear
 Wind from calm
Wind: Calm
Temperature: 32°F , 0°C
Dew Point: 3°F , -16°C
Humidity: 29%
Barometer: 30.18 inHg , 1022 hPa
Clouds: Clear
Visibility: 10 miles , 16 km
2018/01/23 05:35 KPAN 230535Z AUTO 00000KT 10SM CLR 00/M16 A3018 RMK AO2
KBXK - Buckeye, Arizona, USA
Distance from station: W 62mi, 101km
Updated: Mon, 22-Jan-2018 10:35pm MST
Clear
Clear
 Wind from N
Wind: N 8 mph , 13 km/h
Temperature: 45°F , 7°C
Wind Chill: 41°F , 5°C
Dew Point: 14°F , -10°C
Humidity: 29%
Barometer: 30.16 inHg , 1021.3 hPa
Clouds: Clear
Visibility: 10 miles , 16 km
2018/01/23 05:35 KBXK 230535Z AUTO 01007KT 10SM CLR 07/M10 A3016 RMK AO1
 
KGXF - Gila Bend (aaf), Arizona, USA
Distance from station: WSW 74mi, 120km
Updated: Mon, 22-Jan-2018 9:58pm MST
Clear
Clear
 Wind from SE
Wind: SE 7 mph , 11 km/h
Temperature: 45°F , 7°C
Wind Chill: 41°F , 5°C
Dew Point: 18°F , -8°C
Humidity: 34%
Barometer: 30.15 inHg , 1021 hPa
Clouds: Clear
Visibility: 9 miles , 14 km
2018/01/23 04:58 KGXF 230458Z AUTO 13006KT 9SM CLR 07/M08 A3015 RMK AO2 SLP210 T00661081